Time;durP1;ratioP1;P1;durP2;ratioP2;P2;SDS_P1;SDS_P2;PMS_P1;PMS_P2;Temp;Humidity;BMP_temperature;BMP_pressure;BME280_temperature;BME280_humidity;BME280_pressure;Samples;Min_cycle;Max_cycle;Signal;HPM_P1;HPM_P2
2021/11/29 00:01:58;;;;;;;26.90;15.45;;;;;;;;;;4976484;28;20113;-66
2021/11/29 00:04:25;;;;;;;30.45;17.10;;;;;;;;;;4976495;28;20061;-66
2021/11/29 00:06:51;;;;;;;22.60;13.90;;;;;;;;;;4976414;28;20050;-66
2021/11/29 00:09:18;;;;;;;26.63;15.68;;;;;;;;;;4976159;28;20123;-66
2021/11/29 00:11:44;;;;;;;24.90;15.65;;;;;;;;;;4976241;28;20113;-66
2021/11/29 00:14:11;;;;;;;24.73;14.38;;;;;;;;;;4976538;28;20046;-66
2021/11/29 00:16:38;;;;;;;25.95;15.15;;;;;;;;;;4976045;28;20532;-66
2021/11/29 00:19:05;;;;;;;28.17;16.48;;;;;;;;;;4976220;28;20054;-66
2021/11/29 00:21:33;;;;;;;29.90;16.20;;;;;;;;;;4976231;28;20047;-66
2021/11/29 00:23:59;;;;;;;28.20;15.57;;;;;;;;;;4976436;28;20101;-65
2021/11/29 00:26:27;;;;;;;29.58;16.50;;;;;;;;;;4975020;28;20059;-65
2021/11/29 00:28:54;;;;;;;29.90;16.08;;;;;;;;;;4976082;28;20498;-66
2021/11/29 00:31:21;;;;;;;29.83;17.25;;;;;;;;;;4976101;28;20055;-66
2021/11/29 00:33:48;;;;;;;35.03;19.05;;;;;;;;;;4975711;28;20050;-66
2021/11/29 00:36:15;;;;;;;33.20;18.25;;;;;;;;;;4976039;28;20055;-66
2021/11/29 00:38:42;;;;;;;32.55;18.70;;;;;;;;;;4975628;28;20510;-66
2021/11/29 00:41:09;;;;;;;32.72;18.50;;;;;;;;;;4975876;28;20506;-66
2021/11/29 00:43:36;;;;;;;34.08;18.13;;;;;;;;;;4975616;28;20090;-66
2021/11/29 00:46:02;;;;;;;33.53;19.58;;;;;;;;;;4975794;28;20058;-66
2021/11/29 00:48:30;;;;;;;35.97;19.38;;;;;;;;;;4975335;28;20051;-65
2021/11/29 00:50:56;;;;;;;32.47;18.92;;;;;;;;;;4975543;28;20055;-66
2021/11/29 00:53:23;;;;;;;31.92;18.77;;;;;;;;;;4975827;28;20047;-66
2021/11/29 00:55:49;;;;;;;37.42;19.98;;;;;;;;;;4975538;28;20473;-65
2021/11/29 00:58:16;;;;;;;34.50;19.10;;;;;;;;;;4975289;28;20055;-66
2021/11/29 01:00:43;;;;;;;33.63;19.70;;;;;;;;;;4975389;28;20086;-66
2021/11/29 01:03:10;;;;;;;32.70;19.05;;;;;;;;;;4975244;28;20565;-66
2021/11/29 01:05:36;;;;;;;34.45;19.05;;;;;;;;;;4975509;28;20110;-66
2021/11/29 01:08:04;;;;;;;35.03;19.85;;;;;;;;;;4974679;28;20105;-66
2021/11/29 01:10:31;;;;;;;36.72;20.15;;;;;;;;;;4975634;28;20074;-66
2021/11/29 01:12:58;;;;;;;34.65;19.95;;;;;;;;;;4974946;28;20481;-66
2021/11/29 01:15:31;;;;;;;36.83;20.23;;;;;;;;;;4975089;28;20054;-66
2021/11/29 01:17:57;;;;;;;35.53;20.70;;;;;;;;;;4975095;28;20050;-66
2021/11/29 01:20:24;;;;;;;40.17;21.90;;;;;;;;;;4975183;28;20422;-65
2021/11/29 01:22:51;;;;;;;36.35;19.50;;;;;;;;;;4975025;28;20486;-66
2021/11/29 01:25:17;;;;;;;36.70;20.77;;;;;;;;;;4974994;28;20051;-66
2021/11/29 01:27:44;;;;;;;40.03;21.65;;;;;;;;;;4975012;28;20494;-66
2021/11/29 01:30:11;;;;;;;33.97;20.00;;;;;;;;;;4974915;28;20098;-66
2021/11/29 01:32:38;;;;;;;37.50;21.00;;;;;;;;;;4973566;28;20047;-66
2021/11/29 01:35:05;;;;;;;42.25;21.67;;;;;;;;;;4974930;28;20050;-66
2021/11/29 01:37:31;;;;;;;37.80;22.55;;;;;;;;;;4974637;28;20055;-66
2021/11/29 01:39:58;;;;;;;40.47;22.17;;;;;;;;;;4975075;28;20129;-66
2021/11/29 01:42:25;;;;;;;41.13;22.00;;;;;;;;;;4974764;28;20097;-66
2021/11/29 01:44:51;;;;;;;39.38;21.42;;;;;;;;;;4974712;28;20410;-66
2021/11/29 01:47:21;;;;;;;39.92;22.15;;;;;;;;;;4974391;28;20125;-66
2021/11/29 01:49:48;;;;;;;39.72;22.33;;;;;;;;;;4974366;28;20513;-66
2021/11/29 01:52:15;;;;;;;40.05;21.70;;;;;;;;;;4974663;28;20097;-65
2021/11/29 01:54:41;;;;;;;37.75;21.77;;;;;;;;;;4974295;28;20054;-65
2021/11/29 01:57:08;;;;;;;38.35;21.15;;;;;;;;;;4974575;28;20054;-66
2021/11/29 01:59:35;;;;;;;39.80;22.00;;;;;;;;;;4974261;28;20374;-66
2021/11/29 02:02:01;;;;;;;42.88;22.77;;;;;;;;;;4974627;28;20055;-66
2021/11/29 02:04:28;;;;;;;42.15;21.90;;;;;;;;;;4974303;28;20047;-66
2021/11/29 02:06:55;;;;;;;44.08;22.25;;;;;;;;;;4973024;28;20109;-66
2021/11/29 02:09:22;;;;;;;42.80;22.95;;;;;;;;;;4973999;28;20051;-66
2021/11/29 02:11:48;;;;;;;45.40;23.02;;;;;;;;;;4974128;28;20093;-66
2021/11/29 02:14:15;;;;;;;44.35;22.88;;;;;;;;;;4972824;28;20047;-65
2021/11/29 02:16:41;;;;;;;41.17;22.90;;;;;;;;;;4973983;28;20109;-66
2021/11/29 02:19:08;;;;;;;39.47;22.27;;;;;;;;;;4973308;28;20056;-66
2021/11/29 02:21:35;;;;;;;43.63;21.85;;;;;;;;;;4973933;28;20090;-66
2021/11/29 02:24:07;;;;;;;41.72;22.83;;;;;;;;;;4973868;28;20047;-66
2021/11/29 02:26:36;;;;;;;40.05;22.48;;;;;;;;;;4973668;28;20458;-66
2021/11/29 02:29:10;;;;;;;41.63;22.25;;;;;;;;;;4973710;28;20051;-66
2021/11/29 02:31:39;;;;;;;44.22;23.10;;;;;;;;;;4973741;28;20059;-66
2021/11/29 02:34:20;;;;;;;43.08;22.27;;;;;;;;;;4973625;28;20134;-66
2021/11/29 02:36:48;;;;;;;42.90;24.35;;;;;;;;;;4973781;28;20050;-66
2021/11/29 02:39:15;;;;;;;39.88;22.95;;;;;;;;;;4973653;28;20054;-65
2021/11/29 02:41:42;;;;;;;35.80;21.63;;;;;;;;;;4973567;28;20058;-66
2021/11/29 02:44:09;;;;;;;39.40;22.45;;;;;;;;;;4972385;28;20407;-66
2021/11/29 02:46:36;;;;;;;44.85;23.00;;;;;;;;;;4973825;28;20055;-66
2021/11/29 02:49:06;;;;;;;42.60;21.90;;;;;;;;;;4972324;28;20051;-66
2021/11/29 02:51:44;;;;;;;42.50;23.95;;;;;;;;;;4973561;28;20407;-66
2021/11/29 02:54:16;;;;;;;36.90;21.17;;;;;;;;;;4973193;28;20046;-66
2021/11/29 02:56:45;;;;;;;42.42;22.98;;;;;;;;;;4973325;28;20055;-65
2021/11/29 02:59:18;;;;;;;41.95;23.15;;;;;;;;;;4973452;28;20461;-66
2021/11/29 03:01:47;;;;;;;42.00;22.45;;;;;;;;;;4973222;28;20050;-66
2021/11/29 03:04:14;;;;;;;44.85;25.33;;;;;;;;;;4973138;28;20462;-66
2021/11/29 03:06:40;;;;;;;41.28;23.67;;;;;;;;;;4971928;28;20051;-66
2021/11/29 03:09:08;;;;;;;46.13;24.48;;;;;;;;;;4972954;28;20051;-65
2021/11/29 03:11:35;;;;;;;46.80;25.95;;;;;;;;;;4973188;28;20051;-66
2021/11/29 03:14:02;;;;;;;49.53;25.77;;;;;;;;;;4972819;28;20046;-65
2021/11/29 03:16:29;;;;;;;46.47;25.25;;;;;;;;;;4972732;28;20506;-65
2021/11/29 03:18:56;;;;;;;45.83;24.25;;;;;;;;;;4972884;28;20129;-65
2021/11/29 03:21:23;;;;;;;46.03;25.00;;;;;;;;;;4973282;28;20050;-66
2021/11/29 03:23:52;;;;;;;47.25;26.98;;;;;;;;;;4972813;28;20102;-65
2021/11/29 03:26:19;;;;;;;40.00;24.23;;;;;;;;;;4972948;28;20046;-66
2021/11/29 03:28:53;;;;;;;44.55;25.90;;;;;;;;;;4972963;28;20054;-65
2021/11/29 03:31:20;;;;;;;43.03;25.27;;;;;;;;;;4973137;28;20058;-65
2021/11/29 03:33:47;;;;;;;46.38;25.73;;;;;;;;;;4972856;28;20055;-65
2021/11/29 03:36:15;;;;;;;40.50;23.23;;;;;;;;;;4972922;28;20051;-66
2021/11/29 03:38:42;;;;;;;40.60;23.38;;;;;;;;;;4972967;28;20047;-66
2021/11/29 03:41:09;;;;;;;39.83;24.35;;;;;;;;;;4972804;28;20560;-66
2021/11/29 03:43:36;;;;;;;43.30;24.63;;;;;;;;;;4972999;28;20055;-65
2021/11/29 03:46:02;;;;;;;39.22;22.50;;;;;;;;;;4972733;28;20469;-65
2021/11/29 03:48:29;;;;;;;37.90;22.15;;;;;;;;;;4972679;28;20055;-65
2021/11/29 03:50:56;;;;;;;36.42;22.35;;;;;;;;;;4972898;28;20109;-65
2021/11/29 03:53:23;;;;;;;36.38;22.15;;;;;;;;;;4972442;28;20102;-65
2021/11/29 03:55:49;;;;;;;36.40;22.27;;;;;;;;;;4972909;28;20461;-66
2021/11/29 03:58:16;;;;;;;38.50;22.33;;;;;;;;;;4972573;28;20299;-66
2021/11/29 04:00:43;;;;;;;35.58;20.83;;;;;;;;;;4972527;28;20050;-66
2021/11/29 04:03:10;;;;;;;36.42;21.35;;;;;;;;;;4972779;28;20054;-66
2021/11/29 04:05:38;;;;;;;37.92;22.00;;;;;;;;;;4972616;28;20093;-66
2021/11/29 04:08:04;;;;;;;37.88;21.40;;;;;;;;;;4972495;28;20051;-66
2021/11/29 04:10:31;;;;;;;36.03;22.30;;;;;;;;;;4972658;28;20070;-65
2021/11/29 04:12:58;;;;;;;38.85;23.42;;;;;;;;;;4972349;28;20118;-65
2021/11/29 04:15:24;;;;;;;38.47;23.35;;;;;;;;;;4972626;28;20622;-65
2021/11/29 04:17:51;;;;;;;39.00;22.42;;;;;;;;;;4972451;28;20137;-66
2021/11/29 04:20:18;;;;;;;42.40;21.92;;;;;;;;;;4972436;28;20059;-65
2021/11/29 04:22:45;;;;;;;41.30;22.45;;;;;;;;;;4972246;28;20051;-66
2021/11/29 04:25:18;;;;;;;35.38;21.60;;;;;;;;;;4972529;28;20054;-66
2021/11/29 04:27:46;;;;;;;;;;;;;;;;;;4972851;28;20105;-66
2021/11/29 04:30:19;;;;;;;34.40;20.20;;;;;;;;;;4972439;28;19922;-66
2021/11/29 04:32:47;;;;;;;34.17;20.27;;;;;;;;;;4972156;28;20117;-66
2021/11/29 04:35:14;;;;;;;33.67;20.80;;;;;;;;;;4972452;28;20493;-66
2021/11/29 04:37:41;;;;;;;32.42;19.10;;;;;;;;;;4972289;28;20502;-66
2021/11/29 04:40:08;;;;;;;35.08;19.45;;;;;;;;;;4972436;28;20105;-65
2021/11/29 04:42:35;;;;;;;36.58;20.00;;;;;;;;;;4974670;28;20557;-65
2021/11/29 04:45:04;;;;;;;35.67;20.45;;;;;;;;;;4975867;28;20051;-65
2021/11/29 04:47:31;;;;;;;35.50;20.85;;;;;;;;;;4975605;28;20101;-65
2021/11/29 04:49:57;;;;;;;37.80;20.77;;;;;;;;;;4975544;28;20054;-65
2021/11/29 04:52:24;;;;;;;40.70;20.52;;;;;;;;;;4975508;28;20490;-65
2021/11/29 04:54:51;;;;;;;38.53;21.13;;;;;;;;;;4975459;28;20046;-66
2021/11/29 04:57:18;;;;;;;35.10;18.83;;;;;;;;;;4975367;28;20474;-65
2021/11/29 04:59:45;;;;;;;39.20;20.52;;;;;;;;;;4975402;28;20047;-65
2021/11/29 05:02:11;;;;;;;35.05;20.38;;;;;;;;;;4975553;28;20561;-65
2021/11/29 05:04:40;;;;;;;32.70;18.38;;;;;;;;;;4975212;28;20058;-65
2021/11/29 05:07:07;;;;;;;34.00;20.92;;;;;;;;;;4974862;28;20569;-65
2021/11/29 05:09:33;;;;;;;35.33;19.63;;;;;;;;;;4975185;28;20087;-65
2021/11/29 05:12:00;;;;;;;35.53;19.70;;;;;;;;;;4975228;28;20109;-66
2021/11/29 05:14:27;;;;;;;32.50;19.05;;;;;;;;;;4974131;28;20098;-66
2021/11/29 05:16:53;;;;;;;36.70;19.05;;;;;;;;;;4975129;28;20051;-66
2021/11/29 05:19:20;;;;;;;38.75;21.27;;;;;;;;;;5006086;28;20510;-66
2021/11/29 05:21:46;;;;;;;34.63;19.45;;;;;;;;;;4974962;28;20090;-66
2021/11/29 05:24:13;;;;;;;37.85;20.48;;;;;;;;;;4974855;28;20101;-66
2021/11/29 05:26:44;;;;;;;35.83;18.98;;;;;;;;;;4975380;28;20054;-66
2021/11/29 05:29:15;;;;;;;36.05;19.83;;;;;;;;;;4975058;28;20101;-66
2021/11/29 05:31:42;;;;;;;40.70;20.40;;;;;;;;;;4974938;28;20560;-66
2021/11/29 05:34:09;;;;;;;36.15;19.85;;;;;;;;;;4974543;28;20042;-66
2021/11/29 05:36:36;;;;;;;34.83;20.67;;;;;;;;;;4974795;28;20109;-65
2021/11/29 05:39:04;;;;;;;38.45;20.75;;;;;;;;;;4975019;28;20057;-66
2021/11/29 05:41:30;;;;;;;36.58;20.92;;;;;;;;;;4974934;28;20055;-66
2021/11/29 05:43:57;;;;;;;35.35;19.52;;;;;;;;;;4974599;28;20322;-66
2021/11/29 05:46:23;;;;;;;41.05;20.58;;;;;;;;;;4974687;28;20075;-66
2021/11/29 05:48:51;;;;;;;40.40;20.52;;;;;;;;;;4974468;28;20077;-65
2021/11/29 05:51:18;;;;;;;35.25;18.85;;;;;;;;;;4974759;28;20103;-66
2021/11/29 05:53:45;;;;;;;38.08;20.20;;;;;;;;;;4973200;28;20067;-66
2021/11/29 05:56:12;;;;;;;38.22;20.65;;;;;;;;;;4974575;28;20050;-66
2021/11/29 05:58:38;;;;;;;38.30;20.85;;;;;;;;;;4973969;28;20063;-66
2021/11/29 06:01:05;;;;;;;36.53;20.10;;;;;;;;;;4972248;28;20474;-67
2021/11/29 06:03:32;;;;;;;33.45;19.33;;;;;;;;;;4972074;28;20047;-67
2021/11/29 06:05:58;;;;;;;34.25;19.45;;;;;;;;;;4972350;28;20063;-68
2021/11/29 06:08:25;;;;;;;33.75;19.75;;;;;;;;;;4972632;28;20339;-67
2021/11/29 06:10:51;;;;;;;30.38;16.98;;;;;;;;;;4972112;28;20138;-67
2021/11/29 06:13:18;;;;;;;36.33;19.25;;;;;;;;;;4971427;28;20506;-67
2021/11/29 06:15:45;;;;;;;33.10;18.05;;;;;;;;;;4972060;28;20134;-67
2021/11/29 06:18:12;;;;;;;36.90;19.20;;;;;;;;;;4971984;28;20101;-66
2021/11/29 06:20:38;;;;;;;32.08;18.27;;;;;;;;;;4971194;28;20113;-66
2021/11/29 06:23:05;;;;;;;31.17;18.10;;;;;;;;;;4971844;28;20211;-67
2021/11/29 06:25:32;;;;;;;29.42;17.08;;;;;;;;;;4971794;28;20047;-66
2021/11/29 06:27:58;;;;;;;30.15;17.05;;;;;;;;;;4971489;28;20046;-66
2021/11/29 06:30:25;;;;;;;29.63;16.52;;;;;;;;;;4971837;28;20055;-66
2021/11/29 06:32:52;;;;;;;30.75;15.95;;;;;;;;;;4971459;28;20110;-66
2021/11/29 06:35:19;;;;;;;31.55;17.10;;;;;;;;;;4971764;28;20750;-66
2021/11/29 06:37:48;;;;;;;32.03;17.13;;;;;;;;;;4958609;28;20053;-72
2021/11/29 06:40:15;;;;;;;29.98;16.40;;;;;;;;;;4965278;28;20102;-67
2021/11/29 06:42:42;;;;;;;27.73;15.95;;;;;;;;;;4961590;28;20490;-67
2021/11/29 06:45:09;;;;;;;27.25;15.90;;;;;;;;;;4961187;28;20238;-66
2021/11/29 06:47:37;;;;;;;27.83;15.43;;;;;;;;;;4956281;28;20471;-66
2021/11/29 06:50:04;;;;;;;31.65;15.93;;;;;;;;;;4957078;28;20125;-64
2021/11/29 06:52:30;;;;;;;27.15;15.80;;;;;;;;;;4965617;28;20102;-63
2021/11/29 06:54:58;;;;;;;28.92;17.33;;;;;;;;;;4958989;28;20516;-63
2021/11/29 06:57:25;;;;;;;28.10;15.55;;;;;;;;;;4963800;28;20470;-64
2021/11/29 06:59:51;;;;;;;29.10;15.70;;;;;;;;;;4957926;28;20075;-64
2021/11/29 07:02:19;;;;;;;32.22;16.08;;;;;;;;;;4965892;28;20051;-64
2021/11/29 07:04:46;;;;;;;29.00;15.80;;;;;;;;;;4965650;28;20169;-63
2021/11/29 07:07:12;;;;;;;31.80;16.02;;;;;;;;;;4960013;28;20097;-64
2021/11/29 07:09:39;;;;;;;26.73;14.32;;;;;;;;;;4959550;28;20102;-63
2021/11/29 07:12:06;;;;;;;26.38;14.77;;;;;;;;;;4959555;28;20125;-63
2021/11/29 07:14:33;;;;;;;23.05;13.70;;;;;;;;;;4964159;28;20497;-63
2021/11/29 07:16:59;;;;;;;27.60;14.65;;;;;;;;;;4945437;28;20113;-63
2021/11/29 07:19:26;;;;;;;22.98;12.95;;;;;;;;;;4950680;28;21023;-66
2021/11/29 07:21:53;;;;;;;25.13;14.43;;;;;;;;;;4961419;28;20046;-66
2021/11/29 07:24:20;;;;;;;24.70;13.85;;;;;;;;;;4957790;28;20102;-65
2021/11/29 07:26:46;;;;;;;23.60;13.57;;;;;;;;;;4962349;28;20489;-66
2021/11/29 07:29:14;;;;;;;32.17;16.13;;;;;;;;;;4965255;28;20097;-66
2021/11/29 07:31:42;;;;;;;27.67;14.43;;;;;;;;;;4967320;28;20057;-66
2021/11/29 07:34:08;;;;;;;25.45;13.38;;;;;;;;;;4961565;28;20521;-66
2021/11/29 07:36:35;;;;;;;24.27;12.57;;;;;;;;;;4959375;28;20051;-67
2021/11/29 07:39:04;;;;;;;23.02;13.13;;;;;;;;;;4959718;28;20568;-66
2021/11/29 07:41:31;;;;;;;18.85;10.98;;;;;;;;;;4958927;28;20137;-67
2021/11/29 07:43:57;;;;;;;18.52;11.50;;;;;;;;;;4960239;28;20442;-67
2021/11/29 07:46:24;;;;;;;22.45;11.82;;;;;;;;;;4962254;28;20106;-68
2021/11/29 07:48:52;;;;;;;15.32;10.48;;;;;;;;;;4958508;28;20114;-68
2021/11/29 07:51:20;;;;;;;21.35;11.45;;;;;;;;;;4962676;28;20085;-63
2021/11/29 07:53:47;;;;;;;18.10;11.25;;;;;;;;;;4957611;28;20125;-62
2021/11/29 07:56:13;;;;;;;16.52;10.52;;;;;;;;;;4960437;28;20096;-62
2021/11/29 07:58:40;;;;;;;20.88;11.18;;;;;;;;;;4962459;28;20098;-62
2021/11/29 08:01:08;;;;;;;20.30;10.50;;;;;;;;;;4959875;28;20048;-62
2021/11/29 08:03:35;;;;;;;19.65;10.23;;;;;;;;;;4957725;28;20059;-62
2021/11/29 08:06:02;;;;;;;20.77;9.75;;;;;;;;;;4959989;28;20046;-62
2021/11/29 08:08:29;;;;;;;21.35;9.48;;;;;;;;;;4960474;28;20133;-62
2021/11/29 08:10:56;;;;;;;14.73;8.77;;;;;;;;;;4962612;28;20050;-61
2021/11/29 08:13:22;;;;;;;19.05;9.82;;;;;;;;;;4957199;28;20059;-62
2021/11/29 08:15:49;;;;;;;18.08;9.30;;;;;;;;;;4959150;28;20132;-62
2021/11/29 08:18:16;;;;;;;15.52;8.95;;;;;;;;;;4962365;28;20177;-63
2021/11/29 08:20:42;;;;;;;14.95;9.18;;;;;;;;;;4968422;28;20446;-62
2021/11/29 08:23:10;;;;;;;17.13;8.75;;;;;;;;;;4963428;28;20047;-62
2021/11/29 08:25:40;;;;;;;13.00;8.90;;;;;;;;;;4962244;28;20110;-63
2021/11/29 08:28:11;;;;;;;15.18;9.23;;;;;;;;;;4963475;28;20118;-62
2021/11/29 08:30:38;;;;;;;15.05;8.30;;;;;;;;;;4961515;28;20086;-62
2021/11/29 08:33:05;;;;;;;15.25;8.02;;;;;;;;;;4967463;28;20138;-62
2021/11/29 08:35:32;;;;;;;15.18;8.60;;;;;;;;;;4961742;28;20047;-62
2021/11/29 08:37:58;;;;;;;14.02;8.70;;;;;;;;;;4963128;28;20127;-62
2021/11/29 08:40:30;;;;;;;16.02;8.90;;;;;;;;;;4961755;28;20051;-62
2021/11/29 08:42:59;;;;;;;18.55;8.55;;;;;;;;;;4964573;28;20058;-62
2021/11/29 08:45:26;;;;;;;14.52;8.13;;;;;;;;;;4965996;28;20094;-62
2021/11/29 08:47:53;;;;;;;14.60;8.88;;;;;;;;;;4961967;28;20051;-62
2021/11/29 08:50:20;;;;;;;15.98;8.80;;;;;;;;;;4965901;28;20059;-61
2021/11/29 08:52:58;;;;;;;15.68;8.13;;;;;;;;;;4961330;28;20055;-63
2021/11/29 08:55:25;;;;;;;16.75;8.38;;;;;;;;;;4963393;28;20047;-62
2021/11/29 08:57:51;;;;;;;19.45;8.18;;;;;;;;;;4966471;28;20051;-62
2021/11/29 09:00:18;;;;;;;15.13;8.63;;;;;;;;;;4962559;28;20046;-63
2021/11/29 09:02:45;;;;;;;13.88;7.85;;;;;;;;;;4961593;28;20148;-63
2021/11/29 09:05:18;;;;;;;15.43;7.97;;;;;;;;;;4961236;28;20415;-63
2021/11/29 09:07:45;;;;;;;14.40;8.10;;;;;;;;;;4967165;28;20106;-62
2021/11/29 09:10:12;;;;;;;12.20;7.43;;;;;;;;;;4960703;28;20521;-63
2021/11/29 09:12:39;;;;;;;16.67;8.48;;;;;;;;;;4965053;28;20051;-63
2021/11/29 09:15:08;;;;;;;12.80;7.57;;;;;;;;;;4962617;28;20105;-63
2021/11/29 09:17:36;;;;;;;18.95;9.95;;;;;;;;;;4966563;28;20062;-62
2021/11/29 09:20:09;;;;;;;24.40;11.85;;;;;;;;;;4968422;28;20050;-63
2021/11/29 09:22:36;;;;;;;29.13;13.77;;;;;;;;;;4965722;28;20047;-63
2021/11/29 09:25:03;;;;;;;22.98;12.13;;;;;;;;;;4964516;28;20098;-63
2021/11/29 09:27:30;;;;;;;20.20;10.60;;;;;;;;;;4961760;28;20058;-63
2021/11/29 09:29:56;;;;;;;16.15;8.38;;;;;;;;;;4963216;28;20441;-63
2021/11/29 09:32:24;;;;;;;16.65;8.32;;;;;;;;;;4964636;28;20054;-63
2021/11/29 09:34:50;;;;;;;19.95;7.57;;;;;;;;;;4964138;28;20102;-64
2021/11/29 09:37:21;;;;;;;15.40;7.55;;;;;;;;;;4961461;28;20146;-65
2021/11/29 09:39:49;;;;;;;13.73;6.82;;;;;;;;;;4962677;28;20419;-63
2021/11/29 09:42:16;;;;;;;12.95;6.22;;;;;;;;;;4967647;28;20050;-70
2021/11/29 09:44:42;;;;;;;9.30;5.35;;;;;;;;;;4979532;28;20114;-69
2021/11/29 09:47:10;;;;;;;11.57;5.30;;;;;;;;;;4973943;28;20058;-69
2021/11/29 09:49:37;;;;;;;11.65;5.32;;;;;;;;;;4981462;28;20047;-68
2021/11/29 09:52:04;;;;;;;11.77;5.32;;;;;;;;;;4961007;28;20054;-69
2021/11/29 09:54:30;;;;;;;9.68;5.03;;;;;;;;;;4961163;28;20050;-70
2021/11/29 09:56:58;;;;;;;10.95;5.10;;;;;;;;;;4965151;28;20498;-67
2021/11/29 09:59:27;;;;;;;12.27;4.80;;;;;;;;;;4960449;28;20051;-66
2021/11/29 10:01:54;;;;;;;13.98;5.25;;;;;;;;;;4961680;28;20110;-66
2021/11/29 10:04:21;;;;;;;13.10;5.57;;;;;;;;;;4960032;28;20058;-66
2021/11/29 10:07:00;;;;;;;10.93;4.50;;;;;;;;;;4959231;28;20411;-65
2021/11/29 10:09:35;;;;;;;14.13;4.40;;;;;;;;;;4965154;28;20406;-65
2021/11/29 10:12:10;;;;;;;7.10;3.92;;;;;;;;;;4960231;28;20051;-65
2021/11/29 10:14:38;;;;;;;9.70;4.57;;;;;;;;;;4962238;28;20051;-66
2021/11/29 10:17:05;;;;;;;11.77;4.75;;;;;;;;;;4960108;28;20051;-66
2021/11/29 10:19:37;;;;;;;7.50;3.97;;;;;;;;;;4961406;28;20050;-67
2021/11/29 10:22:21;;;;;;;10.13;4.97;;;;;;;;;;4962098;28;20097;-65
2021/11/29 10:24:49;;;;;;;11.43;5.78;;;;;;;;;;4961023;28;20098;-65
2021/11/29 10:27:18;;;;;;;11.38;5.15;;;;;;;;;;4961352;28;20055;-67
2021/11/29 10:29:52;;;;;;;11.57;5.40;;;;;;;;;;4959696;28;20470;-65
2021/11/29 10:32:36;;;;;;;10.32;4.30;;;;;;;;;;4965227;28;20134;-66
2021/11/29 10:35:03;;;;;;;7.10;4.43;;;;;;;;;;4962629;28;20047;-64
2021/11/29 10:37:34;;;;;;;6.22;4.00;;;;;;;;;;4959778;28;20066;-64
2021/11/29 10:40:01;;;;;;;10.43;4.50;;;;;;;;;;4959934;28;20055;-64
2021/11/29 10:42:29;;;;;;;9.32;4.25;;;;;;;;;;4960634;28;20513;-63
2021/11/29 10:44:56;;;;;;;10.00;4.28;;;;;;;;;;4952802;28;20576;-66
2021/11/29 10:47:24;;;;;;;10.73;4.70;;;;;;;;;;4960765;28;20098;-68
2021/11/29 10:49:53;;;;;;;8.60;4.00;;;;;;;;;;4963709;28;20105;-69
2021/11/29 10:52:23;;;;;;;8.85;4.38;;;;;;;;;;4961104;28;20354;-68
2021/11/29 10:54:51;;;;;;;9.88;5.55;;;;;;;;;;4958895;28;20052;-67
2021/11/29 10:57:18;;;;;;;11.48;5.35;;;;;;;;;;4964685;28;20102;-67
2021/11/29 10:59:48;;;;;;;10.45;4.25;;;;;;;;;;4959542;28;20051;-62
2021/11/29 11:02:21;;;;;;;7.00;4.07;;;;;;;;;;4962845;28;20051;-66
2021/11/29 11:05:00;;;;;;;7.53;3.85;;;;;;;;;;4961281;28;20058;-67
2021/11/29 11:07:33;;;;;;;10.32;4.72;;;;;;;;;;4962131;28;20054;-67
2021/11/29 11:10:00;;;;;;;7.65;3.67;;;;;;;;;;4962907;28;20051;-67
2021/11/29 11:12:29;;;;;;;7.15;4.20;;;;;;;;;;4960251;28;20043;-67
2021/11/29 11:15:00;;;;;;;9.73;4.10;;;;;;;;;;4958616;28;20067;-67
2021/11/29 11:17:54;;;;;;;8.35;4.32;;;;;;;;;;4961656;28;20503;-69
2021/11/29 11:20:21;;;;;;;8.20;4.10;;;;;;;;;;4968326;28;20156;-66
2021/11/29 11:22:49;;;;;;;8.82;4.75;;;;;;;;;;4959905;28;20055;-64
2021/11/29 11:25:18;;;;;;;11.48;4.72;;;;;;;;;;4960411;28;20043;-63
2021/11/29 11:28:04;;;;;;;13.45;4.85;;;;;;;;;;4959024;28;20102;-63
2021/11/29 11:30:33;;;;;;;8.23;4.57;;;;;;;;;;4958649;28;20139;-63
2021/11/29 11:33:09;;;;;;;10.55;5.70;;;;;;;;;;4964277;28;20453;-64
2021/11/29 11:35:40;;;;;;;11.00;5.45;;;;;;;;;;4959915;28;20097;-62
2021/11/29 11:38:14;;;;;;;6.78;4.53;;;;;;;;;;4958492;28;20048;-64
2021/11/29 11:40:43;;;;;;;9.60;5.53;;;;;;;;;;4960075;28;20493;-64
2021/11/29 11:43:11;;;;;;;7.20;5.15;;;;;;;;;;4959107;28;20495;-63
2021/11/29 11:45:39;;;;;;;7.13;4.85;;;;;;;;;;4961532;28;20051;-63
2021/11/29 11:48:07;;;;;;;13.05;5.07;;;;;;;;;;4956497;28;20101;-63
2021/11/29 11:50:37;;;;;;;8.52;4.65;;;;;;;;;;4957507;28;20054;-62
2021/11/29 11:53:05;;;;;;;9.13;4.93;;;;;;;;;;4961297;28;20047;-63
2021/11/29 11:55:36;;;;;;;15.40;5.10;;;;;;;;;;4964671;28;20071;-63
2021/11/29 11:58:04;;;;;;;7.80;4.80;;;;;;;;;;4964284;28;20055;-62
2021/11/29 12:00:42;;;;;;;6.53;4.13;;;;;;;;;;4943293;28;20055;-63
2021/11/29 12:03:26;;;;;;;13.10;5.60;;;;;;;;;;4963558;28;20056;-63
2021/11/29 12:06:17;;;;;;;8.13;4.80;;;;;;;;;;4960574;28;20043;-62
2021/11/29 12:08:48;;;;;;;9.05;5.22;;;;;;;;;;4966944;28;20085;-62
2021/11/29 12:11:29;;;;;;;6.93;4.40;;;;;;;;;;4959291;28;20055;-62
2021/11/29 12:14:07;;;;;;;7.43;4.07;;;;;;;;;;4965247;28;20047;-62
2021/11/29 12:16:38;;;;;;;8.95;5.60;;;;;;;;;;4962733;28;20050;-62
2021/11/29 12:19:06;;;;;;;8.73;4.97;;;;;;;;;;4961933;28;20054;-63
2021/11/29 12:21:40;;;;;;;7.13;4.75;;;;;;;;;;4960889;28;20086;-62
2021/11/29 12:24:12;;;;;;;14.20;5.35;;;;;;;;;;4962357;28;20039;-63
2021/11/29 12:26:44;;;;;;;7.82;4.60;;;;;;;;;;4960214;28;20043;-63
2021/11/29 12:29:20;;;;;;;10.70;5.88;;;;;;;;;;4963324;28;20097;-62
2021/11/29 12:31:50;;;;;;;13.20;5.30;;;;;;;;;;4961171;28;20122;-62
2021/11/29 12:34:49;;;;;;;8.50;4.90;;;;;;;;;;4969208;28;20105;-62
2021/11/29 12:37:19;;;;;;;8.40;4.68;;;;;;;;;;4963347;28;20044;-62
2021/11/29 12:39:48;;;;;;;8.25;5.03;;;;;;;;;;4960968;28;20055;-61
2021/11/29 12:42:27;;;;;;;8.90;5.35;;;;;;;;;;4959997;28;20122;-62
2021/11/29 12:45:03;;;;;;;10.63;5.40;;;;;;;;;;4959318;28;20055;-62
2021/11/29 12:47:32;;;;;;;8.52;5.30;;;;;;;;;;4962493;28;20125;-61
2021/11/29 12:50:03;;;;;;;7.78;5.00;;;;;;;;;;4959538;28;20507;-62
2021/11/29 12:52:37;;;;;;;12.38;6.10;;;;;;;;;;4959762;28;20059;-61
2021/11/29 12:55:25;;;;;;;9.18;5.80;;;;;;;;;;4962408;28;20082;-60
2021/11/29 12:58:07;;;;;;;11.20;5.80;;;;;;;;;;4961551;28;20097;-64
2021/11/29 13:00:36;;;;;;;9.02;6.40;;;;;;;;;;4959578;28;20051;-64
2021/11/29 13:03:04;;;;;;;11.40;5.55;;;;;;;;;;4961717;28;20055;-64
2021/11/29 13:05:36;;;;;;;10.25;6.40;;;;;;;;;;4959605;28;20097;-63
2021/11/29 13:08:13;;;;;;;9.70;5.97;;;;;;;;;;4959184;28;20047;-63
2021/11/29 13:11:09;;;;;;;10.57;6.32;;;;;;;;;;4967473;28;20051;-63
2021/11/29 13:13:38;;;;;;;12.57;6.18;;;;;;;;;;4962670;28;20481;-63
2021/11/29 13:16:16;;;;;;;11.10;6.13;;;;;;;;;;4960430;28;20055;-63
2021/11/29 13:18:49;;;;;;;12.13;7.60;;;;;;;;;;4957940;28;20554;-63
2021/11/29 13:21:26;;;;;;;11.18;5.93;;;;;;;;;;4959555;28;20051;-63
2021/11/29 13:24:12;;;;;;;10.25;5.80;;;;;;;;;;4961987;28;20051;-64
2021/11/29 13:26:42;;;;;;;10.55;5.35;;;;;;;;;;4958938;28;20110;-63
2021/11/29 13:29:16;;;;;;;9.38;5.82;;;;;;;;;;4961785;28;20128;-61
2021/11/29 13:31:43;;;;;;;14.45;5.88;;;;;;;;;;4960539;28;20050;-62
2021/11/29 13:34:20;;;;;;;11.77;5.95;;;;;;;;;;4961900;28;20120;-64
2021/11/29 13:36:47;;;;;;;9.45;6.25;;;;;;;;;;4961636;28;20043;-63
2021/11/29 13:39:21;;;;;;;8.38;5.95;;;;;;;;;;4958711;28;20050;-64
2021/11/29 13:42:19;;;;;;;9.88;6.00;;;;;;;;;;4961536;28;20133;-63
2021/11/29 13:45:03;;;;;;;7.20;5.85;;;;;;;;;;4961921;28;20051;-64
2021/11/29 13:47:37;;;;;;;10.85;6.60;;;;;;;;;;4969187;28;20117;-63
2021/11/29 13:50:21;;;;;;;12.13;6.38;;;;;;;;;;4965531;28;20043;-64
2021/11/29 13:52:59;;;;;;;15.15;7.10;;;;;;;;;;4961724;28;20047;-64
2021/11/29 13:55:35;;;;;;;7.97;6.40;;;;;;;;;;4962038;28;20066;-63
2021/11/29 13:58:19;;;;;;;10.95;6.68;;;;;;;;;;4962907;28;20983;-64
2021/11/29 14:00:47;;;;;;;8.13;6.30;;;;;;;;;;4966591;28;20055;-64
2021/11/29 14:03:15;;;;;;;16.10;7.07;;;;;;;;;;4965455;28;20065;-64
2021/11/29 14:05:52;;;;;;;11.57;5.93;;;;;;;;;;4966068;28;20065;-63
2021/11/29 14:08:21;;;;;;;9.38;6.40;;;;;;;;;;4965454;28;20461;-63
2021/11/29 14:10:59;;;;;;;8.27;4.88;;;;;;;;;;4966290;28;20051;-63
2021/11/29 14:13:33;;;;;;;5.43;4.60;;;;;;;;;;4961826;28;20121;-62
2021/11/29 14:16:24;;;;;;;9.50;4.95;;;;;;;;;;4961245;28;20050;-62
2021/11/29 14:18:58;;;;;;;7.20;5.20;;;;;;;;;;4957926;28;20087;-63
2021/11/29 14:21:33;;;;;;;7.20;4.97;;;;;;;;;;4964628;28;20050;-69
2021/11/29 14:24:03;;;;;;;10.93;5.20;;;;;;;;;;4961710;28;20043;-63
2021/11/29 14:26:51;;;;;;;8.45;4.80;;;;;;;;;;4961789;28;20105;-63
2021/11/29 14:29:20;;;;;;;9.30;4.78;;;;;;;;;;4957695;28;20086;-62
2021/11/29 14:31:50;;;;;;;6.22;4.18;;;;;;;;;;4961886;28;20047;-62
2021/11/29 14:34:22;;;;;;;8.00;5.15;;;;;;;;;;4961021;28;20055;-62
2021/11/29 14:36:50;;;;;;;8.45;4.85;;;;;;;;;;4959181;28;20742;-62
2021/11/29 14:39:26;;;;;;;9.35;4.70;;;;;;;;;;4963019;28;20062;-62